Anzahl Datensätze: 144
min. Temperatur: 12.9 °C
max. Temperatur: 27.6 °C
max. Windgeschwindigkeit: 24.1 km/h
Niederschlagsumme: 0.0 mm
| Datum |
Zeit |
Temp °C |
Feuchte % |
Taupunkt °C |
Luftdruck hPa |
Wind km/h |
Windrichtung |
Strahlung w/m² |
Niederschlag mm |
|---|---|---|---|---|---|---|---|---|---|
| 11.08.2025 | 00:00 | 17.4 | 65 | 10.8 | 1026.0 | 7.9 | NO | 0 | 0.0 |
| 11.08.2025 | 00:10 | 17.2 | 66 | 10.8 | 1026.2 | 7.9 | NO | 0 | 0.0 |
| 11.08.2025 | 00:20 | 17.1 | 66 | 10.7 | 1026.1 | 7.9 | NO | 0 | 0.0 |
| 11.08.2025 | 00:30 | 17.2 | 67 | 11.0 | 1026.1 | 7.9 | NO | 0 | 0.0 |
| 11.08.2025 | 00:40 | 17.0 | 67 | 10.8 | 1026.1 | 7.9 | NO | 0 | 0.0 |
| 11.08.2025 | 00:50 | 17.4 | 66 | 11.0 | 1026.0 | 9.7 | NO | 0 | 0.0 |
| 11.08.2025 | 01:00 | 17.4 | 66 | 11.0 | 1026.1 | 9.7 | NO | 0 | 0.0 |
| 11.08.2025 | 01:10 | 17.1 | 67 | 10.9 | 1025.9 | 9.7 | NO | 0 | 0.0 |
| 11.08.2025 | 01:20 | 17.0 | 67 | 10.8 | 1025.9 | 7.9 | ONO | 0 | 0.0 |
| 11.08.2025 | 01:30 | 16.7 | 69 | 11.0 | 1025.9 | 7.9 | NO | 0 | 0.0 |
| 11.08.2025 | 01:40 | 16.6 | 69 | 10.9 | 1025.7 | 7.9 | NO | 0 | 0.0 |
| 11.08.2025 | 01:50 | 16.3 | 70 | 10.8 | 1025.8 | 7.9 | NO | 0 | 0.0 |
| 11.08.2025 | 02:00 | 16.3 | 70 | 10.8 | 1025.8 | 6.5 | ONO | 0 | 0.0 |
| 11.08.2025 | 02:10 | 16.4 | 70 | 10.9 | 1025.7 | 6.5 | NO | 0 | 0.0 |
| 11.08.2025 | 02:20 | 16.8 | 69 | 11.1 | 1025.5 | 6.5 | ONO | 0 | 0.0 |
| 11.08.2025 | 02:30 | 17.2 | 68 | 11.2 | 1025.3 | 4.7 | NO | 0 | 0.0 |
| 11.08.2025 | 02:40 | 16.8 | 68 | 10.9 | 1025.3 | 4.7 | ONO | 0 | 0.0 |
| 11.08.2025 | 02:50 | 16.3 | 70 | 10.8 | 1025.3 | 4.7 | ONO | 0 | 0.0 |
| 11.08.2025 | 03:00 | 16.3 | 70 | 10.8 | 1025.2 | 4.7 | ONO | 0 | 0.0 |
| 11.08.2025 | 03:10 | 15.9 | 72 | 10.9 | 1025.1 | 3.2 | NO | 0 | 0.0 |
| 11.08.2025 | 03:20 | 15.2 | 74 | 10.6 | 1025.0 | 0.0 | NO | 0 | 0.0 |
| 11.08.2025 | 03:30 | 14.8 | 75 | 10.4 | 1025.0 | 0.0 | ONO | 0 | 0.0 |
| 11.08.2025 | 03:40 | 14.2 | 77 | 10.2 | 1025.0 | 0.0 | ONO | 0 | 0.0 |
| 11.08.2025 | 03:50 | 13.9 | 79 | 10.3 | 1025.0 | 0.0 | ONO | 0 | 0.0 |
| 11.08.2025 | 04:00 | 13.6 | 80 | 10.2 | 1025.0 | 0.0 | ONO | 0 | 0.0 |
| 11.08.2025 | 04:10 | 13.4 | 81 | 10.2 | 1025.0 | 0.0 | ONO | 0 | 0.0 |
| 11.08.2025 | 04:20 | 13.5 | 81 | 10.3 | 1024.8 | 0.0 | NO | 0 | 0.0 |
| 11.08.2025 | 04:30 | 13.4 | 81 | 10.2 | 1024.8 | 0.0 | NO | 0 | 0.0 |
| 11.08.2025 | 04:40 | 13.3 | 82 | 10.3 | 1024.8 | 0.0 | NO | 0 | 0.0 |
| 11.08.2025 | 04:50 | 13.3 | 82 | 10.3 | 1024.7 | 0.0 | NO | 0 | 0.0 |
| 11.08.2025 | 05:00 | 13.3 | 82 | 10.3 | 1024.7 | 0.0 | NO | 0 | 0.0 |
| 11.08.2025 | 05:10 | 13.3 | 82 | 10.3 | 1024.6 | 0.0 | NO | 0 | 0.0 |
| 11.08.2025 | 05:20 | 13.3 | 82 | 10.3 | 1024.5 | 0.0 | NO | 0 | 0.0 |
| 11.08.2025 | 05:30 | 13.3 | 81 | 10.1 | 1024.5 | 0.0 | NNO | 0 | 0.0 |
| 11.08.2025 | 05:40 | 13.2 | 82 | 10.2 | 1024.5 | 0.0 | NNO | 0 | 0.0 |
| 11.08.2025 | 05:50 | 13.2 | 82 | 10.2 | 1024.4 | 0.0 | NNO | 0 | 0.0 |
| 11.08.2025 | 06:00 | 13.2 | 82 | 10.2 | 1024.3 | 0.0 | NNO | 0 | 0.0 |
| 11.08.2025 | 06:10 | 13.2 | 81 | 10.0 | 1024.2 | 0.0 | NO | 0 | 0.0 |
| 11.08.2025 | 06:20 | 12.9 | 82 | 9.9 | 1024.2 | 0.0 | NO | 0 | 0.0 |
| 11.08.2025 | 06:30 | 13.1 | 82 | 10.1 | 1024.4 | 0.0 | NO | 5 | 0.0 |
| 11.08.2025 | 06:40 | 13.2 | 81 | 10.0 | 1024.3 | 0.0 | NO | 11 | 0.0 |
| 11.08.2025 | 06:50 | 13.3 | 81 | 10.1 | 1024.2 | 0.0 | NO | 16 | 0.0 |
| 11.08.2025 | 07:00 | 13.7 | 80 | 10.3 | 1024.2 | 0.0 | NO | 19 | 0.0 |
| 11.08.2025 | 07:10 | 14.1 | 79 | 10.5 | 1024.3 | 0.0 | NO | 23 | 0.0 |
| 11.08.2025 | 07:20 | 14.4 | 77 | 10.4 | 1024.3 | 0.0 | NO | 26 | 0.0 |
| 11.08.2025 | 07:30 | 14.8 | 77 | 10.8 | 1024.3 | 3.2 | NO | 28 | 0.0 |
| 11.08.2025 | 07:40 | 14.8 | 77 | 10.8 | 1024.5 | 1.4 | NO | 30 | 0.0 |
| 11.08.2025 | 07:50 | 14.9 | 76 | 10.7 | 1024.5 | 3.2 | NNO | 33 | 0.0 |
| 11.08.2025 | 08:00 | 15.1 | 76 | 10.9 | 1024.3 | 4.7 | NNO | 33 | 0.0 |
| 11.08.2025 | 08:10 | 15.4 | 76 | 11.2 | 1024.2 | 4.7 | N | 35 | 0.0 |
| 11.08.2025 | 08:20 | 15.8 | 76 | 11.6 | 1024.1 | 3.2 | NNO | 37 | 0.0 |
| 11.08.2025 | 08:30 | 16.1 | 74 | 11.5 | 1024.1 | 3.2 | NNO | 39 | 0.0 |
| 11.08.2025 | 08:40 | 16.5 | 73 | 11.6 | 1024.1 | 3.2 | NNO | 39 | 0.0 |
| 11.08.2025 | 08:50 | 16.9 | 71 | 11.6 | 1023.8 | 3.2 | NNO | 40 | 0.0 |
| 11.08.2025 | 09:00 | 17.2 | 71 | 11.9 | 1024.0 | 3.2 | NNO | 42 | 0.0 |
| 11.08.2025 | 09:10 | 17.7 | 68 | 11.7 | 1023.9 | 4.7 | NNO | 44 | 0.0 |
| 11.08.2025 | 09:20 | 18.1 | 68 | 12.1 | 1023.8 | 6.5 | NNO | 46 | 0.0 |
| 11.08.2025 | 09:30 | 18.5 | 68 | 12.5 | 1023.8 | 6.5 | NO | 54 | 0.0 |
| 11.08.2025 | 09:40 | 19.0 | 65 | 12.3 | 1023.5 | 4.7 | NO | 51 | 0.0 |
| 11.08.2025 | 09:50 | 19.3 | 65 | 12.6 | 1023.6 | 4.7 | NO | 241 | 0.0 |
| 11.08.2025 | 10:00 | 19.8 | 64 | 12.8 | 1023.6 | 6.5 | NNO | 139 | 0.0 |
| 11.08.2025 | 10:10 | 20.2 | 66 | 13.6 | 1023.6 | 6.5 | ONO | 490 | 0.0 |
| 11.08.2025 | 10:20 | 20.8 | 59 | 12.5 | 1023.6 | 4.7 | NO | 515 | 0.0 |
| 11.08.2025 | 10:30 | 21.1 | 61 | 13.3 | 1023.7 | 6.5 | ONO | 547 | 0.0 |
| 11.08.2025 | 10:40 | 21.4 | 57 | 12.5 | 1023.7 | 6.5 | NO | 564 | 0.0 |
| 11.08.2025 | 10:50 | 21.8 | 58 | 13.2 | 1023.5 | 3.2 | ONO | 594 | 0.0 |
| 11.08.2025 | 11:00 | 22.2 | 57 | 13.3 | 1023.5 | 3.2 | ONO | 617 | 0.0 |
| 11.08.2025 | 11:10 | 22.3 | 57 | 13.4 | 1023.3 | 6.5 | NO | 635 | 0.0 |
| 11.08.2025 | 11:20 | 23.2 | 55 | 13.7 | 1023.4 | 3.2 | ONO | 654 | 0.0 |
| 11.08.2025 | 11:30 | 22.9 | 53 | 12.8 | 1023.3 | 6.5 | OSO | 612 | 0.0 |
| 11.08.2025 | 11:40 | 23.4 | 54 | 13.6 | 1023.2 | 6.5 | NO | 673 | 0.0 |
| 11.08.2025 | 11:50 | 23.6 | 50 | 12.6 | 1023.3 | 6.5 | NO | 708 | 0.0 |
| 11.08.2025 | 12:00 | 23.8 | 50 | 12.8 | 1023.1 | 7.9 | ONO | 726 | 0.0 |
| 11.08.2025 | 12:10 | 23.9 | 50 | 12.8 | 1023.1 | 9.7 | NO | 686 | 0.0 |
| 11.08.2025 | 12:20 | 24.2 | 50 | 13.1 | 1023.1 | 6.5 | ONO | 608 | 0.0 |
| 11.08.2025 | 12:30 | 24.7 | 49 | 13.3 | 1023.0 | 7.9 | O | 635 | 0.0 |
| 11.08.2025 | 12:40 | 24.4 | 47 | 12.4 | 1022.9 | 13.0 | ONO | 747 | 0.0 |
| 11.08.2025 | 12:50 | 25.1 | 48 | 13.3 | 1023.0 | 4.7 | ONO | 784 | 0.0 |
| 11.08.2025 | 13:00 | 25.1 | 50 | 13.9 | 1022.7 | 7.9 | NO | 789 | 0.0 |
| 11.08.2025 | 13:10 | 25.1 | 46 | 12.7 | 1022.8 | 7.9 | ONO | 798 | 0.0 |
| 11.08.2025 | 13:20 | 25.3 | 48 | 13.5 | 1022.6 | 7.9 | N | 803 | 0.0 |
| 11.08.2025 | 13:30 | 25.2 | 47 | 13.1 | 1022.6 | 9.7 | ONO | 807 | 0.0 |
| 11.08.2025 | 13:40 | 25.7 | 46 | 13.2 | 1022.4 | 4.7 | SSO | 809 | 0.0 |
| 11.08.2025 | 13:50 | 25.8 | 46 | 13.3 | 1022.4 | 4.7 | NNO | 812 | 0.0 |
| 11.08.2025 | 14:00 | 25.9 | 46 | 13.4 | 1022.4 | 6.5 | NO | 812 | 0.0 |
| 11.08.2025 | 14:10 | 26.0 | 48 | 14.1 | 1022.2 | 6.5 | NNO | 812 | 0.0 |
| 11.08.2025 | 14:20 | 26.3 | 44 | 13.1 | 1022.1 | 6.5 | NNO | 805 | 0.0 |
| 11.08.2025 | 14:30 | 26.0 | 46 | 13.5 | 1022.1 | 9.7 | NO | 802 | 0.0 |
| 11.08.2025 | 14:40 | 26.6 | 44 | 13.3 | 1021.9 | 9.7 | ONO | 798 | 0.0 |
| 11.08.2025 | 14:50 | 26.5 | 42 | 12.5 | 1021.9 | 9.7 | O | 795 | 0.0 |
| 11.08.2025 | 15:00 | 26.6 | 42 | 12.6 | 1021.8 | 7.9 | NO | 780 | 0.0 |
| 11.08.2025 | 15:10 | 26.8 | 41 | 12.4 | 1021.8 | 6.5 | O | 777 | 0.0 |
| 11.08.2025 | 15:20 | 26.8 | 41 | 12.4 | 1021.6 | 11.2 | ONO | 766 | 0.0 |
| 11.08.2025 | 15:30 | 27.0 | 40 | 12.2 | 1021.6 | 9.7 | NO | 758 | 0.0 |
| 11.08.2025 | 15:40 | 27.2 | 36 | 10.8 | 1021.6 | 9.7 | NO | 744 | 0.0 |
| 11.08.2025 | 15:50 | 27.3 | 36 | 10.9 | 1021.4 | 6.5 | NNO | 729 | 0.0 |
| 11.08.2025 | 16:00 | 27.1 | 40 | 12.3 | 1021.3 | 7.9 | NNO | 714 | 0.0 |
| 11.08.2025 | 16:10 | 27.5 | 38 | 11.9 | 1021.3 | 7.9 | NO | 698 | 0.0 |
| 11.08.2025 | 16:20 | 27.5 | 36 | 11.1 | 1021.0 | 6.5 | O | 682 | 0.0 |
| 11.08.2025 | 16:30 | 27.3 | 38 | 11.7 | 1021.0 | 6.5 | NNO | 666 | 0.0 |
| 11.08.2025 | 16:40 | 27.4 | 41 | 13.0 | 1020.8 | 7.9 | NO | 541 | 0.0 |
| 11.08.2025 | 16:50 | 27.5 | 38 | 11.9 | 1020.8 | 7.9 | OSO | 617 | 0.0 |
| 11.08.2025 | 17:00 | 27.6 | 40 | 12.8 | 1020.6 | 9.7 | NNO | 601 | 0.0 |
| 11.08.2025 | 17:10 | 27.3 | 41 | 12.9 | 1020.4 | 11.2 | N | 575 | 0.0 |
| 11.08.2025 | 17:20 | 27.6 | 41 | 13.2 | 1020.3 | 7.9 | NO | 555 | 0.0 |
| 11.08.2025 | 17:30 | 27.3 | 38 | 11.7 | 1020.0 | 7.9 | NNO | 529 | 0.0 |
| 11.08.2025 | 17:40 | 27.2 | 39 | 12.0 | 1019.9 | 11.2 | NO | 508 | 0.0 |
| 11.08.2025 | 17:50 | 27.2 | 40 | 12.4 | 1019.9 | 9.7 | NNO | 482 | 0.0 |
| 11.08.2025 | 18:00 | 27.2 | 40 | 12.4 | 1019.7 | 9.7 | ONO | 448 | 0.0 |
| 11.08.2025 | 18:10 | 27.3 | 40 | 12.5 | 1019.7 | 6.5 | O | 429 | 0.0 |
| 11.08.2025 | 18:20 | 26.9 | 40 | 12.2 | 1019.6 | 9.7 | NO | 401 | 0.0 |
| 11.08.2025 | 18:30 | 26.9 | 40 | 12.2 | 1019.6 | 11.2 | NO | 371 | 0.0 |
| 11.08.2025 | 18:40 | 26.9 | 42 | 12.9 | 1019.5 | 7.9 | NO | 345 | 0.0 |
| 11.08.2025 | 18:50 | 26.7 | 40 | 12.0 | 1019.4 | 7.9 | NO | 315 | 0.0 |
| 11.08.2025 | 19:00 | 26.6 | 41 | 12.3 | 1019.7 | 7.9 | NO | 287 | 0.0 |
| 11.08.2025 | 19:10 | 26.3 | 39 | 11.2 | 1019.6 | 7.9 | NNO | 260 | 0.0 |
| 11.08.2025 | 19:20 | 26.2 | 40 | 11.5 | 1019.7 | 7.9 | NNO | 230 | 0.0 |
| 11.08.2025 | 19:30 | 25.9 | 39 | 10.9 | 1019.5 | 6.5 | NO | 197 | 0.0 |
| 11.08.2025 | 19:40 | 25.8 | 40 | 11.2 | 1019.6 | 4.7 | NO | 163 | 0.0 |
| 11.08.2025 | 19:50 | 25.6 | 40 | 11.0 | 1019.6 | 3.2 | NO | 132 | 0.0 |
| 11.08.2025 | 20:00 | 25.2 | 41 | 11.0 | 1019.5 | 3.2 | NO | 105 | 0.0 |
| 11.08.2025 | 20:10 | 24.9 | 42 | 11.1 | 1019.4 | 3.2 | NO | 77 | 0.0 |
| 11.08.2025 | 20:20 | 24.4 | 42 | 10.7 | 1019.3 | 1.4 | NO | 54 | 0.0 |
| 11.08.2025 | 20:30 | 24.1 | 42 | 10.4 | 1019.4 | 3.2 | NO | 35 | 0.0 |
| 11.08.2025 | 20:40 | 23.5 | 44 | 10.5 | 1019.3 | 1.4 | NO | 19 | 0.0 |
| 11.08.2025 | 20:50 | 23.1 | 43 | 9.8 | 1019.3 | 0.0 | NO | 9 | 0.0 |
| 11.08.2025 | 21:00 | 22.8 | 45 | 10.2 | 1019.3 | 0.0 | NO | 0 | 0.0 |
| 11.08.2025 | 21:10 | 22.4 | 44 | 9.5 | 1019.4 | 0.0 | NO | 0 | 0.0 |
| 11.08.2025 | 21:20 | 22.3 | 44 | 9.5 | 1019.4 | 0.0 | ONO | 0 | 0.0 |
| 11.08.2025 | 21:30 | 22.0 | 45 | 9.5 | 1019.4 | 0.0 | ONO | 0 | 0.0 |
| 11.08.2025 | 21:40 | 21.8 | 45 | 9.3 | 1019.5 | 0.0 | ONO | 0 | 0.0 |
| 11.08.2025 | 21:50 | 21.7 | 45 | 9.2 | 1019.5 | 0.0 | ONO | 0 | 0.0 |
| 11.08.2025 | 22:00 | 21.2 | 47 | 9.4 | 1019.4 | 0.0 | NO | 0 | 0.0 |
| 11.08.2025 | 22:10 | 20.9 | 48 | 9.5 | 1019.5 | 0.0 | ONO | 0 | 0.0 |
| 11.08.2025 | 22:20 | 20.8 | 48 | 9.4 | 1019.3 | 1.4 | ONO | 0 | 0.0 |
| 11.08.2025 | 22:30 | 20.6 | 48 | 9.2 | 1019.4 | 1.4 | ONO | 0 | 0.0 |
| 11.08.2025 | 22:40 | 20.7 | 48 | 9.3 | 1019.4 | 1.4 | NO | 0 | 0.0 |
| 11.08.2025 | 22:50 | 20.2 | 49 | 9.1 | 1019.3 | 1.4 | NO | 0 | 0.0 |
| 11.08.2025 | 23:00 | 20.2 | 48 | 8.8 | 1019.4 | 1.4 | ONO | 0 | 0.0 |
| 11.08.2025 | 23:10 | 20.7 | 46 | 8.7 | 1019.4 | 1.4 | NO | 0 | 0.0 |
| 11.08.2025 | 23:20 | 20.8 | 45 | 8.4 | 1019.4 | 0.0 | ONO | 0 | 0.0 |
| 11.08.2025 | 23:30 | 20.8 | 45 | 8.4 | 1019.2 | 0.0 | ONO | 0 | 0.0 |
| 11.08.2025 | 23:40 | 20.7 | 46 | 8.7 | 1019.2 | 0.0 | NO | 0 | 0.0 |
| 11.08.2025 | 23:50 | 20.1 | 48 | 8.7 | 1019.2 | 0.0 | ONO | 0 | 0.0 |